Time;durP1;ratioP1;P1;durP2;ratioP2;P2;SDS_P1;SDS_P2;PMS_P1;PMS_P2;Temp;Humidity;BMP_temperature;BMP_pressure;BME280_temperature;BME280_humidity;BME280_pressure;Samples;Min_cycle;Max_cycle;Signal;HPM_P1;HPM_P2
2023/01/14 00:01:42;;;;;;;78.67;48.00;;;4.90;94.10;;;;;;4981471;28;20637;-63
2023/01/14 00:04:10;;;;;;;82.50;49.90;;;4.90;94.10;;;;;;4986067;28;20302;-63
2023/01/14 00:06:37;;;;;;;83.10;51.30;;;4.90;94.30;;;;;;4984678;28;20214;-63
2023/01/14 00:09:11;;;;;;;83.23;50.03;;;4.90;94.40;;;;;;4987500;28;20227;-63
2023/01/14 00:11:48;;;;;;;73.53;49.97;;;4.90;94.50;;;;;;4983797;28;20247;-63
2023/01/14 00:14:24;;;;;;;73.93;48.83;;;4.90;94.60;;;;;;4986400;28;20192;-63
2023/01/14 00:16:52;;;;;;;80.87;48.43;;;4.90;94.70;;;;;;4991340;28;20206;-63
2023/01/14 00:19:20;;;;;;;75.57;49.07;;;5.00;94.70;;;;;;4980730;28;20201;-63
2023/01/14 00:21:48;;;;;;;75.43;48.80;;;5.00;94.80;;;;;;4987843;28;20541;-63
2023/01/14 00:24:18;;;;;;;75.50;50.27;;;5.00;94.90;;;;;;4980748;28;20549;-63
2023/01/14 00:26:53;;;;;;;79.17;49.27;;;5.00;94.90;;;;;;4984478;28;20593;-63
2023/01/14 00:29:23;;;;;;;71.60;48.50;;;5.00;94.90;;;;;;4981687;28;20218;-63
2023/01/14 00:31:56;;;;;;;75.33;47.77;;;5.10;95.00;;;;;;4983671;28;20549;-64
2023/01/14 00:34:26;;;;;;;75.40;47.77;;;5.00;94.90;;;;;;4986588;28;20200;-63
2023/01/14 00:36:53;;;;;;;74.60;48.23;;;5.10;95.00;;;;;;4999664;28;20212;-64
2023/01/14 00:39:21;;;;;;;78.83;49.73;;;5.10;95.00;;;;;;4989371;28;20221;-63
2023/01/14 00:41:48;;;;;;;73.10;49.87;;;5.10;94.90;;;;;;4979798;28;20208;-64
2023/01/14 00:44:17;;;;;;;75.83;49.37;;;5.10;95.00;;;;;;4984342;28;20216;-63
2023/01/14 00:46:44;;;;;;;79.00;49.10;;;5.10;95.00;;;;;;4990413;28;20659;-63
2023/01/14 00:49:17;;;;;;;66.93;45.57;;;5.10;95.00;;;;;;4984285;28;20222;-63
2023/01/14 00:51:46;;;;;;;82.37;47.70;;;5.10;95.00;;;;;;4986242;28;20221;-63
2023/01/14 00:54:13;;;;;;;70.80;46.57;;;5.10;94.90;;;;;;4982690;28;20240;-63
2023/01/14 00:56:40;;;;;;;70.40;43.13;;;5.00;94.90;;;;;;4983483;28;20208;-63
2023/01/14 00:59:20;;;;;;;70.90;46.97;;;5.00;94.90;;;;;;4978477;28;20620;-63
2023/01/14 01:01:48;;;;;;;63.40;44.13;;;5.00;95.00;;;;;;4982433;28;20199;-63
2023/01/14 01:04:17;;;;;;;70.17;44.27;;;5.00;95.00;;;;;;4985505;28;20201;-63
2023/01/14 01:06:44;;;;;;;65.87;43.83;;;5.00;95.00;;;;;;4980028;28;20213;-63
2023/01/14 01:09:11;;;;;;;66.73;45.07;;;5.00;95.00;;;;;;4983656;28;20291;-63
2023/01/14 01:11:38;;;;;;;64.83;42.67;;;5.00;95.00;;;;;;4979025;28;20201;-63
2023/01/14 01:14:05;;;;;;;64.63;42.17;;;5.00;95.00;;;;;;4990201;28;20602;-63
2023/01/14 01:16:32;;;;;;;70.87;43.60;;;5.00;95.00;;;;;;4986967;28;20198;-63
2023/01/14 01:18:59;;;;;;;64.93;42.47;;;5.00;95.00;;;;;;4992311;28;20301;-63
2023/01/14 01:21:27;;;;;;;63.57;42.50;;;5.00;95.00;;;;;;5000776;28;20654;-63
2023/01/14 01:23:54;;;;;;;62.07;41.07;;;4.90;95.00;;;;;;4982049;28;20231;-63
2023/01/14 01:26:25;;;;;;;59.80;41.00;;;4.90;94.90;;;;;;4998380;28;20685;-63
2023/01/14 01:28:56;;;;;;;59.30;41.53;;;4.90;94.90;;;;;;4982301;28;20232;-63
2023/01/14 01:31:27;;;;;;;63.07;40.87;;;4.90;94.90;;;;;;4986269;28;20246;-63
2023/01/14 01:33:55;;;;;;;61.63;40.77;;;4.90;95.00;;;;;;4982797;28;20196;-63
2023/01/14 01:36:25;;;;;;;58.27;38.53;;;4.90;95.10;;;;;;4983304;28;20272;-63
2023/01/14 01:38:52;;;;;;;55.27;38.00;;;4.90;95.10;;;;;;4997908;28;20196;-63
2023/01/14 01:41:24;;;;;;;56.17;39.50;;;4.90;95.10;;;;;;4983064;28;20209;-63
2023/01/14 01:44:07;;;;;;;54.90;38.43;;;4.90;95.10;;;;;;4980094;28;20193;-63
2023/01/14 01:46:36;;;;;;;52.13;36.10;;;4.90;95.00;;;;;;4987431;28;20204;-64
2023/01/14 01:49:06;;;;;;;60.67;37.50;;;4.90;95.00;;;;;;4984086;28;20224;-63
2023/01/14 01:51:40;;;;;;;63.10;37.23;;;4.90;95.10;;;;;;4988471;28;20553;-63
2023/01/14 01:54:07;;;;;;;57.23;37.53;;;4.90;95.10;;;;;;4982193;28;20233;-63
2023/01/14 01:56:37;;;;;;;59.70;37.00;;;5.00;95.10;;;;;;4989623;28;20212;-63
2023/01/14 01:59:09;;;;;;;53.97;35.77;;;5.00;95.10;;;;;;4998041;28;20677;-63
2023/01/14 02:01:38;;;;;;;50.93;35.00;;;5.00;95.10;;;;;;4982701;28;20577;-64
2023/01/14 02:04:06;;;;;;;52.07;35.70;;;5.00;95.10;;;;;;4987990;28;20204;-63
2023/01/14 02:06:35;;;;;;;55.80;35.03;;;5.00;95.10;;;;;;5004077;28;20608;-63
2023/01/14 02:09:02;;;;;;;53.77;35.43;;;5.00;95.10;;;;;;4986644;28;20209;-63
2023/01/14 02:11:57;;;;;;;49.63;32.87;;;4.90;95.00;;;;;;4992851;28;20548;-64
2023/01/14 02:14:54;;;;;;;51.43;33.97;;;5.00;95.00;;;;;;4969948;28;20290;-63
2023/01/14 02:17:43;;;;;;;51.73;33.80;;;4.90;95.00;;;;;;5002247;28;20216;-63
2023/01/14 02:20:22;;;;;;;49.53;33.00;;;4.90;94.90;;;;;;4987382;28;21074;-63
2023/01/14 02:23:04;;;;;;;49.33;34.53;;;4.90;94.90;;;;;;4985114;28;20278;-63
2023/01/14 02:25:38;;;;;;;49.13;34.23;;;4.90;94.90;;;;;;4987449;28;20239;-63
2023/01/14 02:28:34;;;;;;;46.47;32.03;;;4.90;95.00;;;;;;4986116;28;20270;-63
2023/01/14 02:31:19;;;;;;;41.30;28.67;;;4.90;95.00;;;;;;4981440;28;20302;-63
2023/01/14 02:33:49;;;;;;;44.73;30.03;;;4.90;94.90;;;;;;5003023;28;20208;-64
2023/01/14 02:36:40;;;;;;;47.67;30.73;;;4.80;94.40;;;;;;4985733;28;20286;-63
2023/01/14 02:39:25;;;;;;;51.17;33.93;;;4.70;94.10;;;;;;4990279;28;20778;-63
2023/01/14 02:45:29;;;;;;;50.17;33.57;;;4.40;94.20;;;;;;4986338;28;20537;-63
2023/01/14 02:47:59;;;;;;;52.70;32.67;;;4.40;94.40;;;;;;4986862;28;20211;-64
2023/01/14 02:50:34;;;;;;;51.60;32.00;;;4.40;94.50;;;;;;4990606;28;20224;-64
2023/01/14 02:53:12;;;;;;;46.30;31.67;;;4.40;94.60;;;;;;4986156;28;20262;-63
2023/01/14 02:55:39;;;;;;;51.03;33.97;;;4.30;94.60;;;;;;4985576;28;20596;-63
2023/01/14 02:58:38;;;;;;;48.37;33.20;;;4.30;94.50;;;;;;4999517;28;20656;-64
2023/01/14 03:01:29;;;;;;;52.00;35.13;;;4.20;94.50;;;;;;4999354;28;20227;-63
2023/01/14 03:04:14;;;;;;;56.90;36.27;;;4.30;94.60;;;;;;4986745;28;20732;-63
2023/01/14 03:06:59;;;;;;;55.00;34.97;;;4.20;94.50;;;;;;4987328;28;20547;-64
2023/01/14 03:09:51;;;;;;;55.30;34.50;;;4.20;94.50;;;;;;4984696;28;20282;-63
2023/01/14 03:12:43;;;;;;;51.83;33.93;;;4.20;94.60;;;;;;4986074;28;20196;-63
2023/01/14 03:15:27;;;;;;;45.03;31.60;;;4.10;94.60;;;;;;4989614;28;20216;-63
2023/01/14 03:18:18;;;;;;;46.13;29.37;;;4.10;94.70;;;;;;5002412;28;20634;-63
2023/01/14 03:21:08;;;;;;;48.73;32.10;;;4.00;94.70;;;;;;4984661;28;20299;-63
2023/01/14 03:23:46;;;;;;;52.77;32.53;;;4.00;94.70;;;;;;5001088;28;20209;-63
2023/01/14 03:26:15;;;;;;;51.70;32.43;;;3.90;94.50;;;;;;4986848;28;20214;-63
2023/01/14 03:28:49;;;;;;;48.00;31.93;;;3.90;94.20;;;;;;4998978;28;20330;-64
2023/01/14 03:31:25;;;;;;;52.97;34.50;;;3.80;94.50;;;;;;4994882;28;20285;-64
2023/01/14 03:33:57;;;;;;;49.77;34.30;;;3.80;94.90;;;;;;4986536;28;20208;-63
2023/01/14 03:36:27;;;;;;;50.30;34.50;;;3.80;95.20;;;;;;4993141;28;20215;-63
2023/01/14 03:39:07;;;;;;;45.00;28.67;;;3.80;95.20;;;;;;4981970;28;20220;-63
2023/01/14 03:45:03;;;;;;;60.17;35.17;;;3.70;94.60;;;;;;4986947;28;20693;-63
2023/01/14 03:47:34;;;;;;;55.77;35.17;;;3.60;94.70;;;;;;4988529;28;20292;-63
2023/01/14 03:50:05;;;;;;;53.93;34.97;;;3.60;95.00;;;;;;4986360;28;20236;-64
2023/01/14 03:53:10;;;;;;;51.33;33.27;;;3.60;95.20;;;;;;4985009;28;20204;-63
2023/01/14 03:55:45;;;;;;;51.20;33.90;;;3.60;95.30;;;;;;4987635;28;20208;-63
2023/01/14 03:58:26;;;;;;;50.83;33.23;;;3.60;95.30;;;;;;4984019;28;20198;-64
2023/01/14 04:01:13;;;;;;;49.43;32.00;;;3.60;95.20;;;;;;4982855;28;20215;-64
2023/01/14 04:03:41;;;;;;;53.23;34.70;;;3.60;95.30;;;;;;4989668;28;20207;-63
2023/01/14 04:06:10;;;;;;;48.63;31.73;;;3.60;95.30;;;;;;4986944;28;20211;-63
2023/01/14 04:08:37;;;;;;;48.10;31.77;;;3.60;95.30;;;;;;4985569;28;20533;-63
2023/01/14 04:11:05;;;;;;;44.47;30.00;;;3.60;95.30;;;;;;4982119;28;20228;-63
2023/01/14 04:16:18;;;;;;;49.80;31.33;;;3.60;95.20;;;;;;4989565;28;20633;-63
2023/01/14 04:18:45;;;;;;;46.33;30.67;;;3.60;95.10;;;;;;4983010;28;20647;-63
2023/01/14 04:21:12;;;;;;;47.83;29.77;;;3.60;95.00;;;;;;4989497;28;20219;-63
2023/01/14 04:23:39;;;;;;;44.03;31.23;;;3.50;94.70;;;;;;4983648;28;20208;-63
2023/01/14 04:26:06;;;;;;;50.90;31.57;;;3.50;94.70;;;;;;4985652;28;20214;-64
2023/01/14 04:28:33;;;;;;;46.17;30.03;;;3.40;94.80;;;;;;4981267;28;20208;-63
2023/01/14 04:31:00;;;;;;;43.67;29.93;;;3.40;94.90;;;;;;4985102;28;20239;-63
2023/01/14 04:33:27;;;;;;;43.03;28.40;;;3.40;94.90;;;;;;4985402;28;20218;-63
2023/01/14 04:35:54;;;;;;;47.20;30.60;;;3.40;95.00;;;;;;4980618;28;20200;-63
2023/01/14 04:38:22;;;;;;;51.13;31.13;;;3.40;94.50;;;;;;4989469;28;20215;-63
2023/01/14 04:40:50;;;;;;;46.57;30.30;;;3.30;94.30;;;;;;4980653;28;20214;-63
2023/01/14 04:43:18;;;;;;;45.97;29.60;;;3.30;94.40;;;;;;4984426;28;20650;-63
2023/01/14 04:45:49;;;;;;;38.83;27.20;;;3.30;94.70;;;;;;4987162;28;20202;-64
2023/01/14 04:48:18;;;;;;;42.20;27.37;;;3.30;94.80;;;;;;4990979;28;20266;-63
2023/01/14 04:50:46;;;;;;;45.20;29.50;;;3.30;94.70;;;;;;4981404;28;20233;-63
2023/01/14 04:53:20;;;;;;;45.67;29.20;;;3.20;94.70;;;;;;4984936;28;20568;-63
2023/01/14 04:55:51;;;;;;;46.50;31.10;;;3.20;94.80;;;;;;4981527;28;20196;-63
2023/01/14 04:58:18;;;;;;;44.33;30.40;;;3.20;94.80;;;;;;4981216;28;20500;-63
2023/01/14 05:00:46;;;;;;;44.87;29.13;;;3.20;94.90;;;;;;4978396;28;20219;-62
2023/01/14 05:03:15;;;;;;;43.07;27.37;;;3.20;95.00;;;;;;4986748;28;20269;-63
2023/01/14 05:05:43;;;;;;;47.60;29.37;;;3.20;95.00;;;;;;4982673;28;20287;-63
2023/01/14 05:08:10;;;;;;;36.97;26.63;;;3.30;95.00;;;;;;4987779;28;20571;-63
2023/01/14 05:10:38;;;;;;;42.67;26.37;;;3.20;94.80;;;;;;4979917;28;20290;-63
2023/01/14 05:13:07;;;;;;;38.97;25.73;;;3.10;94.40;;;;;;4985374;28;20211;-63
2023/01/14 05:15:41;;;;;;;48.80;27.80;;;3.10;94.20;;;;;;4987102;28;20247;-63
2023/01/14 05:18:10;;;;;;;42.50;27.70;;;3.00;94.20;;;;;;4987671;28;20527;-63
2023/01/14 05:20:37;;;;;;;44.43;28.07;;;3.00;94.30;;;;;;4985475;28;20212;-63
2023/01/14 05:23:09;;;;;;;46.07;29.33;;;2.90;94.30;;;;;;4981433;28;20524;-63
2023/01/14 05:25:36;;;;;;;44.07;27.57;;;3.00;94.40;;;;;;4981878;28;20251;-63
2023/01/14 05:28:06;;;;;;;38.57;26.20;;;2.90;94.40;;;;;;5001967;28;20219;-63
2023/01/14 05:30:33;;;;;;;41.60;27.90;;;2.90;94.50;;;;;;4981253;28;20298;-63
2023/01/14 05:33:01;;;;;;;43.97;28.13;;;2.90;94.60;;;;;;4990113;28;20206;-63
2023/01/14 05:35:28;;;;;;;40.47;27.43;;;3.00;94.60;;;;;;4984089;28;20202;-63
2023/01/14 05:37:55;;;;;;;42.07;27.47;;;3.00;94.70;;;;;;4988842;28;20294;-63
2023/01/14 05:40:22;;;;;;;43.60;28.37;;;3.00;94.70;;;;;;5000208;28;20240;-63
2023/01/14 05:45:59;;;;;;;38.97;26.13;;;3.00;94.70;;;;;;4987105;28;20291;-63
2023/01/14 05:48:26;;;;;;;41.03;27.30;;;3.00;94.70;;;;;;4989332;28;20290;-63
2023/01/14 05:50:56;;;;;;;38.63;26.80;;;3.00;94.70;;;;;;4988852;28;20672;-63
2023/01/14 05:53:25;;;;;;;38.17;26.73;;;3.00;94.70;;;;;;4984806;28;20240;-63
2023/01/14 05:55:53;;;;;;;40.73;28.10;;;3.10;94.70;;;;;;4990396;28;20296;-63
2023/01/14 05:58:20;;;;;;;38.93;26.23;;;3.00;94.70;;;;;;4983351;28;20203;-63
2023/01/14 06:06:26;;;;;;;37.13;24.80;;;3.10;94.60;;;;;;4986860;28;20202;-63
2023/01/14 06:08:58;;;;;;;50.23;29.20;;;3.10;94.40;;;;;;4987038;28;20216;-63
2023/01/14 06:11:27;;;;;;;41.40;28.83;;;3.00;94.30;;;;;;4969006;28;20571;-63
2023/01/14 06:13:57;;;;;;;41.13;27.63;;;3.00;94.40;;;;;;4985391;28;20195;-63
2023/01/14 06:16:29;;;;;;;40.70;26.50;;;3.00;94.60;;;;;;4987527;28;20220;-64
2023/01/14 06:18:56;;;;;;;39.90;27.77;;;3.00;94.70;;;;;;4985270;28;20216;-64
2023/01/14 06:21:28;;;;;;;44.20;28.60;;;3.00;94.70;;;;;;4987433;28;20250;-63
2023/01/14 06:23:56;;;;;;;44.97;27.63;;;3.10;94.70;;;;;;4990861;28;20234;-63
2023/01/14 06:26:29;;;;;;;45.23;27.80;;;3.10;94.80;;;;;;4989559;28;20223;-63
2023/01/14 06:29:02;;;;;;;43.00;28.23;;;3.10;94.80;;;;;;5000137;28;20592;-63
2023/01/14 06:31:30;;;;;;;43.80;29.70;;;3.10;94.80;;;;;;4985492;28;20273;-63
2023/01/14 06:33:57;;;;;;;40.33;27.53;;;3.10;94.90;;;;;;4987749;28;20191;-63
2023/01/14 06:36:25;;;;;;;35.63;24.73;;;3.10;95.00;;;;;;4990125;28;20291;-63
2023/01/14 06:38:52;;;;;;;38.97;24.77;;;3.10;94.90;;;;;;4987635;28;20203;-64
2023/01/14 06:41:20;;;;;;;37.77;25.07;;;3.10;94.90;;;;;;4983600;28;20203;-63
2023/01/14 06:43:47;;;;;;;41.27;25.03;;;3.10;94.80;;;;;;4987075;28;20222;-63
2023/01/14 06:46:15;;;;;;;36.73;25.57;;;3.10;94.70;;;;;;4991691;28;20206;-63
2023/01/14 06:48:44;;;;;;;41.77;25.37;;;3.00;94.60;;;;;;4987754;28;20206;-63
2023/01/14 06:51:17;;;;;;;39.00;25.27;;;3.00;94.50;;;;;;4988261;28;20212;-63
2023/01/14 06:53:44;;;;;;;37.53;26.93;;;3.00;94.50;;;;;;4984382;28;20248;-63
2023/01/14 06:56:15;;;;;;;41.33;26.00;;;3.00;94.50;;;;;;4986922;28;20252;-63
2023/01/14 06:58:42;;;;;;;37.27;23.73;;;3.00;94.50;;;;;;4980146;28;20200;-63
2023/01/14 07:01:09;;;;;;;44.30;26.57;;;3.00;94.50;;;;;;4982418;28;20217;-63
2023/01/14 07:03:38;;;;;;;37.57;25.47;;;3.00;94.50;;;;;;4986505;28;20275;-63
2023/01/14 07:06:06;;;;;;;35.10;25.23;;;3.00;94.50;;;;;;4984656;28;20285;-63
2023/01/14 07:08:33;;;;;;;35.93;24.53;;;3.00;94.60;;;;;;4988102;28;20214;-63
2023/01/14 07:11:00;;;;;;;42.37;28.43;;;3.10;94.60;;;;;;4978625;28;20698;-63
2023/01/14 07:13:28;;;;;;;44.83;28.03;;;3.10;94.50;;;;;;4984276;28;20523;-63
2023/01/14 07:15:57;;;;;;;42.33;26.87;;;3.20;94.50;;;;;;4989910;28;20309;-63
2023/01/14 07:18:27;;;;;;;42.47;25.80;;;3.20;94.60;;;;;;4991438;28;20205;-63
2023/01/14 07:20:56;;;;;;;35.90;23.67;;;3.30;94.40;;;;;;4985485;28;20568;-63
2023/01/14 07:23:24;;;;;;;30.80;22.37;;;3.40;94.20;;;;;;4982900;28;20221;-63
2023/01/14 07:25:55;;;;;;;35.50;24.17;;;3.40;94.20;;;;;;4987098;28;20581;-63
2023/01/14 07:28:24;;;;;;;38.07;25.67;;;3.40;94.10;;;;;;4981760;28;20227;-63
2023/01/14 07:30:51;;;;;;;40.10;28.33;;;3.40;94.20;;;;;;4981671;28;20219;-63
2023/01/14 07:33:20;;;;;;;39.40;25.90;;;3.40;94.20;;;;;;4985674;28;20219;-63
2023/01/14 07:35:51;;;;;;;42.97;28.13;;;3.40;94.20;;;;;;4982760;28;20198;-63
2023/01/14 07:38:19;;;;;;;42.67;27.00;;;3.40;94.30;;;;;;4985277;28;20257;-63
2023/01/14 07:40:46;;;;;;;39.30;26.60;;;3.40;94.30;;;;;;4979892;28;20642;-63
2023/01/14 07:43:13;;;;;;;45.97;25.43;;;3.50;94.40;;;;;;4983260;28;20565;-63
2023/01/14 07:45:40;;;;;;;40.93;25.07;;;3.50;94.40;;;;;;4989017;28;20215;-63
2023/01/14 07:48:08;;;;;;;34.63;24.23;;;3.50;94.40;;;;;;4989446;28;20257;-63
2023/01/14 07:50:35;;;;;;;36.07;24.57;;;3.50;94.30;;;;;;4985837;28;20224;-63
2023/01/14 07:53:02;;;;;;;38.77;24.97;;;3.50;94.20;;;;;;4976392;28;20676;-63
2023/01/14 07:55:29;;;;;;;35.33;23.70;;;3.60;94.20;;;;;;4986816;28;20660;-63
2023/01/14 07:57:58;;;;;;;39.97;26.10;;;3.50;93.90;;;;;;4979358;28;20699;-63
2023/01/14 08:00:25;;;;;;;40.63;24.37;;;3.50;93.90;;;;;;4978270;28;20609;-63
2023/01/14 08:02:52;;;;;;;44.23;28.10;;;3.50;94.00;;;;;;4983562;28;20596;-63
2023/01/14 08:05:19;;;;;;;42.03;27.87;;;3.60;94.00;;;;;;4981888;28;20210;-63
2023/01/14 08:07:46;;;;;;;43.87;29.13;;;3.60;94.00;;;;;;4986533;28;20275;-63
2023/01/14 08:10:13;;;;;;;40.73;27.07;;;3.60;94.10;;;;;;4982852;28;20234;-63
2023/01/14 08:12:40;;;;;;;41.00;26.83;;;3.70;94.30;;;;;;4984098;28;20231;-63
2023/01/14 08:15:11;;;;;;;38.03;27.13;;;3.70;94.40;;;;;;4986989;28;20198;-63
2023/01/14 08:17:39;;;;;;;35.93;25.37;;;3.80;94.40;;;;;;4991931;28;20213;-63
2023/01/14 08:20:06;;;;;;;42.90;27.70;;;3.90;94.50;;;;;;4985032;28;20606;-63
2023/01/14 08:22:33;;;;;;;50.00;31.83;;;4.00;94.40;;;;;;4984643;28;20554;-63
2023/01/14 08:25:00;;;;;;;47.97;30.87;;;4.00;94.40;;;;;;4984485;28;20525;-63
2023/01/14 08:27:31;;;;;;;46.63;30.57;;;4.10;94.50;;;;;;4982195;28;20208;-63
2023/01/14 08:29:58;;;;;;;48.83;30.17;;;4.30;94.50;;;;;;4983205;28;20207;-63
2023/01/14 08:32:26;;;;;;;54.67;31.93;;;4.40;94.60;;;;;;4981955;28;20231;-63
2023/01/14 08:34:53;;;;;;;43.77;29.67;;;4.50;94.70;;;;;;4985450;28;20624;-63
2023/01/14 08:37:20;;;;;;;47.70;28.80;;;4.70;94.70;;;;;;4986898;28;20200;-63
2023/01/14 08:39:47;;;;;;;46.13;30.57;;;4.80;94.70;;;;;;4979448;28;20200;-63
2023/01/14 08:42:14;;;;;;;51.87;33.37;;;5.00;94.70;;;;;;4983029;28;20247;-63
2023/01/14 08:44:41;;;;;;;52.43;34.33;;;5.10;94.70;;;;;;4983997;28;20207;-63
2023/01/14 08:47:08;;;;;;;51.07;31.90;;;5.30;94.70;;;;;;4994687;28;20222;-64
2023/01/14 08:49:35;;;;;;;46.17;32.20;;;5.40;94.60;;;;;;4986022;28;20204;-63
2023/01/14 08:52:02;;;;;;;59.10;34.83;;;5.50;94.60;;;;;;4978685;28;20221;-63
2023/01/14 08:54:29;;;;;;;60.33;36.77;;;5.70;94.50;;;;;;4983831;28;20243;-63
2023/01/14 08:56:56;;;;;;;49.97;35.13;;;5.80;94.50;;;;;;4982211;28;20188;-63
2023/01/14 08:59:24;;;;;;;52.90;35.43;;;6.00;94.40;;;;;;4980317;28;20426;-63
2023/01/14 09:01:52;;;;;;;58.07;34.77;;;6.10;94.60;;;;;;4987652;28;20207;-63
2023/01/14 09:04:24;;;;;;;51.00;32.30;;;6.20;94.30;;;;;;4987392;28;20212;-63
2023/01/14 09:18:03;;;;;;;39.70;27.07;;;6.90;94.10;;;;;;4989459;28;20511;-64
2023/01/14 09:20:39;;;;;;;37.63;24.30;;;7.10;93.70;;;;;;4985681;28;20647;-63
2023/01/14 09:23:08;;;;;;;29.53;22.00;;;7.20;93.60;;;;;;4987005;28;20197;-63
2023/01/14 09:25:36;;;;;;;32.47;20.60;;;7.30;93.50;;;;;;4989441;28;20209;-63
2023/01/14 09:28:04;;;;;;;30.17;22.20;;;7.40;93.30;;;;;;4983789;28;20196;-63
2023/01/14 09:30:31;;;;;;;28.50;21.00;;;7.50;93.10;;;;;;4988430;28;20211;-63
2023/01/14 09:32:59;;;;;;;30.33;21.93;;;7.60;93.00;;;;;;4984937;28;20210;-63
2023/01/14 09:35:27;;;;;;;30.73;21.47;;;7.70;92.90;;;;;;4987230;28;20225;-63
2023/01/14 09:37:54;;;;;;;30.93;22.40;;;7.80;92.90;;;;;;4988212;28;20209;-63
2023/01/14 09:40:21;;;;;;;37.20;25.57;;;7.90;92.70;;;;;;4981691;28;20212;-63
2023/01/14 09:42:50;;;;;;;37.00;26.27;;;8.00;92.70;;;;;;4983374;28;20664;-63
2023/01/14 09:45:33;;;;;;;38.60;25.73;;;8.00;92.50;;;;;;4989611;28;20211;-63
2023/01/14 09:48:11;;;;;;;39.40;25.47;;;8.10;92.60;;;;;;4996558;28;20637;-63
2023/01/14 09:51:06;;;;;;;47.30;30.00;;;8.20;92.50;;;;;;4986316;28;20230;-64
2023/01/14 09:53:51;;;;;;;40.50;27.67;;;8.30;92.20;;;;;;4992964;28;20236;-63
2023/01/14 09:56:31;;;;;;;38.17;24.97;;;8.30;91.70;;;;;;4987296;28;20209;-63
2023/01/14 09:59:06;;;;;;;38.97;24.57;;;8.40;91.50;;;;;;4987253;28;20205;-63
2023/01/14 10:01:48;;;;;;;41.07;27.37;;;8.40;91.40;;;;;;4987420;28;20376;-63
2023/01/14 10:04:28;;;;;;;41.37;28.60;;;8.50;91.30;;;;;;4989124;28;20197;-63
2023/01/14 10:06:58;;;;;;;39.37;27.07;;;8.60;91.10;;;;;;4986035;28;20280;-63
2023/01/14 10:09:46;;;;;;;40.30;27.33;;;8.60;90.80;;;;;;5002772;28;20225;-63
2023/01/14 10:12:26;;;;;;;38.83;26.37;;;8.70;90.50;;;;;;4982141;28;20655;-63
2023/01/14 10:15:29;;;;;;;36.83;26.53;;;8.70;90.30;;;;;;4987584;28;20201;-63
2023/01/14 10:18:02;;;;;;;32.97;23.37;;;8.80;90.30;;;;;;4993535;28;20326;-63
2023/01/14 10:20:47;;;;;;;34.20;21.27;;;8.80;90.20;;;;;;4987105;28;20198;-63
2023/01/14 10:23:18;;;;;;;39.03;24.00;;;8.90;90.30;;;;;;4987113;28;20223;-63
2023/01/14 10:25:49;;;;;;;31.50;23.27;;;9.00;90.30;;;;;;4987829;28;20201;-63
2023/01/14 10:28:20;;;;;;;29.90;21.13;;;9.00;90.20;;;;;;4988341;28;20216;-63
2023/01/14 10:30:49;;;;;;;31.90;20.77;;;9.10;90.10;;;;;;4985893;28;20193;-63
2023/01/14 10:33:18;;;;;;;31.90;22.90;;;9.20;90.00;;;;;;4988656;28;20306;-63
2023/01/14 10:35:49;;;;;;;30.07;21.30;;;9.20;89.80;;;;;;4990674;28;20201;-63
2023/01/14 10:38:21;;;;;;;33.20;23.33;;;9.30;89.80;;;;;;4986119;28;20519;-63
2023/01/14 10:40:50;;;;;;;31.80;23.27;;;9.30;89.70;;;;;;4982174;28;20293;-63
2023/01/14 10:43:33;;;;;;;35.23;24.33;;;9.40;89.40;;;;;;4986650;28;20206;-63
2023/01/14 10:46:00;;;;;;;33.87;24.57;;;9.50;89.20;;;;;;4992163;28;20281;-63
2023/01/14 10:48:50;;;;;;;35.80;26.27;;;9.60;88.50;;;;;;4990388;28;20210;-63
2023/01/14 10:51:39;;;;;;;36.73;27.60;;;9.60;88.10;;;;;;4983595;28;20206;-63
2023/01/14 10:54:11;;;;;;;35.47;26.60;;;9.70;87.80;;;;;;4990796;28;20233;-63
2023/01/14 10:56:49;;;;;;;41.57;27.57;;;9.70;87.10;;;;;;4984696;28;20223;-63
2023/01/14 10:59:37;;;;;;;43.17;28.77;;;9.80;87.20;;;;;;4981121;28;20201;-63
2023/01/14 11:02:05;;;;;;;38.47;27.63;;;9.80;87.00;;;;;;4986818;28;20202;-63
2023/01/14 11:04:48;;;;;;;41.80;28.83;;;9.80;86.80;;;;;;4982494;28;20301;-63
2023/01/14 11:07:41;;;;;;;39.97;29.17;;;9.90;86.70;;;;;;4987466;28;20201;-63
2023/01/14 11:10:29;;;;;;;45.90;28.10;;;10.00;86.40;;;;;;4987338;28;20232;-63
2023/01/14 11:13:15;;;;;;;40.07;28.37;;;10.00;85.70;;;;;;4986516;28;20224;-63
2023/01/14 11:15:45;;;;;;;36.50;27.17;;;10.00;85.80;;;;;;5004414;28;20638;-63
2023/01/14 11:18:19;;;;;;;37.77;26.83;;;10.10;85.80;;;;;;4990193;28;20285;-63
2023/01/14 11:20:53;;;;;;;44.90;30.53;;;10.10;85.40;;;;;;4986362;28;20282;-63
2023/01/14 11:23:28;;;;;;;38.40;28.47;;;10.10;85.60;;;;;;4985417;28;20210;-63
2023/01/14 11:26:11;;;;;;;41.93;30.27;;;10.10;85.80;;;;;;4987782;28;20198;-63
2023/01/14 11:28:45;;;;;;;45.23;29.57;;;10.20;85.20;;;;;;4986703;28;20210;-63
2023/01/14 11:31:13;;;;;;;43.10;29.23;;;10.30;84.40;;;;;;4987817;28;20223;-63
2023/01/14 11:33:49;;;;;;;38.33;27.13;;;10.40;84.30;;;;;;4987445;28;20593;-63
2023/01/14 11:36:25;;;;;;;40.83;29.60;;;10.50;84.30;;;;;;4989524;28;20200;-63
2023/01/14 11:38:56;;;;;;;39.57;29.57;;;10.60;84.40;;;;;;5000753;28;20190;-63
2023/01/14 11:41:36;;;;;;;39.27;30.13;;;10.70;84.40;;;;;;4989788;28;20528;-63
2023/01/14 11:44:14;;;;;;;37.43;28.20;;;10.80;83.70;;;;;;4984778;28;20203;-63
2023/01/14 11:46:44;;;;;;;41.93;30.63;;;10.90;82.70;;;;;;4992736;28;20540;-63
2023/01/14 11:49:20;;;;;;;39.60;29.33;;;11.00;82.50;;;;;;4987586;28;20526;-63
2023/01/14 11:52:00;;;;;;;39.97;28.40;;;11.10;82.50;;;;;;4980214;28;20563;-63
2023/01/14 11:54:38;;;;;;;41.07;30.57;;;11.20;82.30;;;;;;4983868;28;20251;-63
2023/01/14 11:57:15;;;;;;;38.50;29.30;;;11.20;82.20;;;;;;4986648;28;20196;-63
2023/01/14 11:59:43;;;;;;;39.47;30.30;;;11.20;81.80;;;;;;4981709;28;20203;-63
2023/01/14 12:02:10;;;;;;;40.30;29.67;;;11.30;81.00;;;;;;4985401;28;20270;-63
2023/01/14 12:04:55;;;;;;;39.70;28.57;;;11.30;80.90;;;;;;4981815;28;20272;-63
2023/01/14 12:07:33;;;;;;;40.10;29.20;;;11.40;81.00;;;;;;4979996;28;20195;-63
2023/01/14 12:10:24;;;;;;;42.03;29.57;;;11.40;80.40;;;;;;4981018;28;20199;-63
2023/01/14 12:19:03;;;;;;;46.27;31.30;;;11.50;80.30;;;;;;4984225;28;20200;-63
2023/01/14 12:21:36;;;;;;;43.70;32.43;;;11.60;79.90;;;;;;4984301;28;20204;-63
2023/01/14 12:24:14;;;;;;;43.87;33.10;;;11.60;80.20;;;;;;4983655;28;20207;-63
2023/01/14 12:26:45;;;;;;;47.40;34.07;;;11.60;80.00;;;;;;4987232;28;20199;-63
2023/01/14 12:29:23;;;;;;;46.57;33.43;;;11.60;79.80;;;;;;4981798;28;20211;-63
2023/01/14 12:31:59;;;;;;;46.03;32.03;;;11.60;79.30;;;;;;4985987;28;20209;-63
2023/01/14 12:34:38;;;;;;;43.07;32.70;;;11.70;79.40;;;;;;4987878;28;20302;-63
2023/01/14 12:37:14;;;;;;;45.67;34.80;;;11.70;79.30;;;;;;4984028;28;20212;-63
2023/01/14 12:45:46;;;;;;;54.73;39.93;;;11.80;79.60;;;;;;4986675;28;20199;-63
2023/01/14 12:48:17;;;;;;;56.33;42.27;;;11.80;79.60;;;;;;4987778;28;20638;-63
2023/01/14 12:50:58;;;;;;;51.57;41.30;;;11.80;79.90;;;;;;4985355;28;20203;-63
2023/01/14 12:53:29;;;;;;;54.17;42.37;;;11.90;80.10;;;;;;4980089;28;20245;-63
2023/01/14 12:56:00;;;;;;;56.07;44.23;;;11.90;80.30;;;;;;4984922;28;20196;-63
2023/01/14 12:58:34;;;;;;;57.83;45.77;;;11.90;80.40;;;;;;4982777;28;20197;-63
2023/01/14 13:01:06;;;;;;;61.60;46.57;;;11.80;80.60;;;;;;4985136;28;20226;-63
2023/01/14 13:03:48;;;;;;;61.90;46.43;;;11.80;81.30;;;;;;4981112;28;20239;-63
2023/01/14 13:06:25;;;;;;;62.10;45.73;;;11.80;81.20;;;;;;4984822;28;20295;-63
2023/01/14 13:08:55;;;;;;;58.83;46.30;;;11.70;81.40;;;;;;4982381;28;20203;-63
2023/01/14 13:11:36;;;;;;;58.50;45.80;;;11.80;81.30;;;;;;4983735;28;20257;-63
2023/01/14 13:14:04;;;;;;;59.27;46.57;;;11.80;81.20;;;;;;4986517;28;20204;-63
2023/01/14 13:16:42;;;;;;;60.13;47.33;;;11.80;81.00;;;;;;4991071;28;20218;-63
2023/01/14 13:19:48;;;;;;;60.90;47.47;;;11.80;81.10;;;;;;4986164;28;20228;-63
2023/01/14 13:22:38;;;;;;;56.13;44.33;;;11.80;81.10;;;;;;4986329;28;20243;-63
2023/01/14 13:25:05;;;;;;;57.40;46.63;;;11.80;81.20;;;;;;4983470;28;20517;-63
2023/01/14 13:27:34;;;;;;;59.43;47.77;;;11.80;81.40;;;;;;4976713;28;20212;-63
2023/01/14 13:30:34;;;;;;;61.83;47.97;;;11.80;81.80;;;;;;4981942;28;20207;-63
2023/01/14 13:33:06;;;;;;;60.60;46.93;;;11.80;82.10;;;;;;4993806;28;20244;-63
2023/01/14 13:35:36;;;;;;;59.93;47.73;;;11.70;82.10;;;;;;4983521;28;20238;-63
2023/01/14 13:38:24;;;;;;;61.30;47.47;;;11.70;82.30;;;;;;4983383;28;20250;-63
2023/01/14 13:41:06;;;;;;;58.40;45.57;;;11.70;82.80;;;;;;4982106;28;20698;-63
2023/01/14 13:43:47;;;;;;;59.40;46.27;;;11.80;83.20;;;;;;4985844;28;20244;-63
2023/01/14 13:46:36;;;;;;;56.90;43.97;;;11.80;83.00;;;;;;4984030;28;20198;-63